createdAt,value
2023-02-16T11:19:46.330Z,75.46
2023-02-16T11:31:38.070Z,73.93
2023-02-16T11:34:27.336Z,73.56
2023-02-16T11:37:03.371Z,73.18
2023-02-16T11:39:36.129Z,72.81
2023-02-16T11:42:10.428Z,72.52
2023-02-16T11:44:41.379Z,72.55
2023-02-16T11:47:22.799Z,72.69
2023-02-16T11:50:04.625Z,72.27
2023-02-16T11:52:32.826Z,72.60
2023-02-16T11:55:02.319Z,72.58
2023-02-16T11:57:31.544Z,72.72
2023-02-16T12:00:00.363Z,72.91
2023-02-16T12:02:46.655Z,73.03
2023-02-16T12:05:48.755Z,73.24
2023-02-16T12:08:35.965Z,73.37
2023-02-16T12:11:12.584Z,73.24
2023-02-16T12:13:57.783Z,73.35
2023-02-16T12:16:38.029Z,73.38
2023-02-16T12:19:11.411Z,73.57
2023-02-16T12:21:56.495Z,73.54
2023-02-16T12:24:34.405Z,73.85
2023-02-16T12:27:21.484Z,73.85
2023-02-16T12:30:10.412Z,73.94
2023-02-16T12:33:01.163Z,74.07
2023-02-16T12:35:27.618Z,74.35
2023-02-16T12:38:03.753Z,74.33
2023-02-16T12:41:04.424Z,74.33
2023-02-16T12:44:00.200Z,74.72
2023-02-16T12:46:36.149Z,74.91
2023-02-16T12:49:19.210Z,74.96
2023-02-16T12:51:50.831Z,75.34
2023-02-16T12:54:26.182Z,75.17
2023-02-16T12:57:04.017Z,75.06
2023-02-16T12:59:59.522Z,75.29
2023-02-16T13:02:36.995Z,75.15
2023-02-16T13:05:10.588Z,75.30
2023-02-16T13:07:43.517Z,75.29
2023-02-16T13:10:52.983Z,75.28
2023-02-16T13:13:25.090Z,75.43
2023-02-16T13:16:20.668Z,75.32
2023-02-16T13:18:58.890Z,75.09
2023-02-16T13:21:39.670Z,75.08
2023-02-16T13:24:26.418Z,75.32
2023-02-16T13:27:37.102Z,75.13
2023-02-16T13:30:22.637Z,75.00
2023-02-16T13:33:14.640Z,75.04
2023-02-16T13:35:57.396Z,74.88
2023-02-16T13:38:44.878Z,74.90
2023-02-16T13:41:14.310Z,74.94
2023-02-16T13:44:09.721Z,74.76
2023-02-16T13:46:52.548Z,74.62
2023-02-16T13:49:36.247Z,74.41
2023-02-16T13:52:03.815Z,74.12
2023-02-16T13:54:35.217Z,73.73
2023-02-16T13:57:05.991Z,73.17
2023-02-16T13:59:36.083Z,72.52
2023-02-16T14:02:04.136Z,72.01
2023-02-16T14:04:30.850Z,71.43
2023-02-16T14:07:03.815Z,70.14
2023-02-16T14:09:33.835Z,69.31
2023-02-16T14:12:03.198Z,69.59
2023-02-16T14:14:44.004Z,69.83
2023-02-16T14:17:19.386Z,69.92
2023-02-16T14:19:58.926Z,69.47
2023-02-16T14:22:47.538Z,69.03
2023-02-16T14:25:20.415Z,69.20
2023-02-16T14:27:53.329Z,70.36
2023-02-16T14:30:47.900Z,70.22
2023-02-16T14:33:17.487Z,70.55
2023-02-16T14:35:46.808Z,70.62
2023-02-16T14:38:26.982Z,71.21
2023-02-16T14:40:59.749Z,71.04
2023-02-16T14:43:30.637Z,70.88
2023-02-16T14:46:29.281Z,71.57
2023-02-16T14:49:14.929Z,71.21
2023-02-16T14:51:50.988Z,70.76
2023-02-16T14:54:30.684Z,71.47
2023-02-16T14:57:07.498Z,71.69
2023-02-16T14:59:54.482Z,71.29
2023-02-16T15:02:34.040Z,70.94
2023-02-16T15:05:22.395Z,71.35
2023-02-16T15:07:58.480Z,70.89
2023-02-16T15:10:28.685Z,69.35
2023-02-16T15:12:56.652Z,69.59
2023-02-16T15:15:48.922Z,70.42
2023-02-16T15:18:19.396Z,70.43
2023-02-16T15:20:51.159Z,70.33
2023-02-16T15:23:20.141Z,70.60
2023-02-16T15:25:59.005Z,70.91
2023-02-16T15:28:56.765Z,71.14
2023-02-16T15:31:34.159Z,71.38
2023-02-16T15:34:08.138Z,71.46
2023-02-16T15:36:37.581Z,71.30
2023-02-16T15:39:07.164Z,72.77
2023-02-16T15:41:37.779Z,73.18
2023-02-16T15:44:06.767Z,73.11
2023-02-16T15:46:37.124Z,72.84
2023-02-16T15:49:14.142Z,72.92
2023-02-16T15:51:41.759Z,72.88
2023-02-16T15:54:22.173Z,72.82
2023-02-16T15:56:51.559Z,73.44
2023-02-16T15:59:27.596Z,73.90
2023-02-16T16:02:04.261Z,74.49
2023-02-16T16:04:32.198Z,74.94
2023-02-16T16:07:00.125Z,75.33
2023-02-16T16:09:33.222Z,75.83
2023-02-16T16:12:10.932Z,75.97
2023-02-16T16:14:43.213Z,76.09
2023-02-16T16:17:14.472Z,76.24
2023-02-16T16:19:41.120Z,76.38
2023-02-16T16:22:33.140Z,76.90
2023-02-16T16:25:00.646Z,76.95
2023-02-16T16:27:40.433Z,76.92
2023-02-16T16:30:45.385Z,77.06
2023-02-16T16:33:14.166Z,77.17
2023-02-16T16:35:46.545Z,77.24
2023-02-16T16:38:24.638Z,77.14
2023-02-16T16:40:57.623Z,77.20
2023-02-16T16:43:29.348Z,77.12
2023-02-16T16:46:18.764Z,77.16
2023-02-16T16:48:48.675Z,77.14
2023-02-16T16:51:21.607Z,77.28
2023-02-16T16:53:51.714Z,77.18
2023-02-16T16:56:18.929Z,77.16
2023-02-16T16:58:51.508Z,77.08
2023-02-16T17:01:19.371Z,77.31
2023-02-16T17:03:46.005Z,77.19
2023-02-16T17:06:14.228Z,77.08
2023-02-16T17:08:42.268Z,77.00
2023-02-16T17:11:16.694Z,77.09
2023-02-16T17:13:43.389Z,77.08
2023-02-16T17:16:19.139Z,77.12
2023-02-16T17:18:45.898Z,77.05
2023-02-16T17:21:13.952Z,77.10
2023-02-16T17:23:50.393Z,77.35
2023-02-16T17:26:19.549Z,77.33
2023-02-16T17:28:46.149Z,77.17
2023-02-16T17:31:12.835Z,77.32
2023-02-16T17:33:39.532Z,77.36
2023-02-16T17:36:07.601Z,77.32
2023-02-16T17:38:34.907Z,77.54
2023-02-16T17:41:01.777Z,77.53
2023-02-16T17:43:28.828Z,77.72
2023-02-16T17:45:57.064Z,77.67
2023-02-16T17:48:28.378Z,77.94
2023-02-16T17:50:55.313Z,77.90
2023-02-16T17:53:24.129Z,77.73
2023-02-16T17:55:54.409Z,77.75
2023-02-16T17:58:23.194Z,77.79
2023-02-16T18:00:50.432Z,77.86
2023-02-16T18:03:18.178Z,78.06
2023-02-16T18:05:45.176Z,78.03
2023-02-16T18:08:13.541Z,77.99
2023-02-16T18:10:46.240Z,78.16
2023-02-16T18:13:13.992Z,78.12
2023-02-16T18:15:45.374Z,78.08
2023-02-16T18:18:13.549Z,78.26
2023-02-16T18:20:40.443Z,78.15
2023-02-16T18:23:07.170Z,78.20
2023-02-16T18:25:34.245Z,78.04
2023-02-16T18:28:01.077Z,77.89
2023-02-16T18:30:28.195Z,78.12
2023-02-16T18:32:54.980Z,78.37
2023-02-16T18:35:21.881Z,78.60
2023-02-16T18:37:48.809Z,78.61
2023-02-16T18:40:19.540Z,79.16
2023-02-16T18:42:47.931Z,79.24
2023-02-16T18:45:14.760Z,80.22
2023-02-16T18:47:42.711Z,79.94
2023-02-16T18:50:09.454Z,78.91
2023-02-16T18:52:36.338Z,78.68
2023-02-16T19:01:32.793Z,77.68
2023-02-16T19:04:02.325Z,77.59
2023-02-16T19:06:36.578Z,78.04
2023-02-16T19:09:03.390Z,77.74
2023-02-16T19:11:30.913Z,77.72
2023-02-16T19:16:39.530Z,77.60
2023-02-16T19:21:46.979Z,77.49
2023-02-16T19:24:13.534Z,77.57
2023-02-16T19:26:47.912Z,77.68
2023-02-16T19:29:15.086Z,77.85
2023-02-16T19:31:41.845Z,78.13
2023-02-16T19:34:14.924Z,78.01
2023-02-16T19:36:41.572Z,76.96
2023-02-16T19:39:08.475Z,77.25
2023-02-16T19:41:46.352Z,77.13
2023-02-16T19:44:14.302Z,77.29
2023-02-16T19:49:21.568Z,79.59
2023-02-16T19:54:31.095Z,83.55
2023-02-16T19:59:38.322Z,83.48
2023-02-16T20:04:47.612Z,83.31
2023-02-16T20:07:36.308Z,82.02
2023-02-16T20:10:25.476Z,81.99
2023-02-16T20:15:52.452Z,81.54
2023-02-16T20:18:36.267Z,81.61
2023-02-16T20:21:05.939Z,82.21
2023-02-16T20:23:38.862Z,81.98
2023-02-16T20:26:09.714Z,81.99
2023-02-16T20:28:52.511Z,82.45
2023-02-16T20:34:53.501Z,82.69
2023-02-16T20:37:25.971Z,82.86
2023-02-16T20:39:58.944Z,82.91
2023-02-16T20:42:36.389Z,82.62
2023-02-16T20:45:03.577Z,82.66
2023-02-16T20:50:22.261Z,82.77
2023-02-16T20:55:29.356Z,82.94
2023-02-16T20:57:58.487Z,82.81
2023-02-16T21:00:25.669Z,82.40
2023-02-16T21:03:01.021Z,82.58
2023-02-16T21:05:33.673Z,82.86
2023-02-16T21:08:01.582Z,83.35
2023-02-16T21:10:28.043Z,84.31
2023-02-16T21:12:54.590Z,85.18
2023-02-16T21:15:23.223Z,86.04
2023-02-16T21:17:50.153Z,86.71
2023-02-16T21:20:17.146Z,86.97
2023-02-16T21:25:25.038Z,87.53
2023-02-16T21:30:34.919Z,87.89
2023-02-16T21:33:01.647Z,87.86
2023-02-16T21:35:32.291Z,87.79
2023-02-16T21:37:58.888Z,87.68
2023-02-16T21:40:44.451Z,87.74
2023-02-16T21:43:11.283Z,87.84
2023-02-16T21:45:38.876Z,87.83
2023-02-16T21:48:25.392Z,87.66
2023-02-16T21:50:52.084Z,88.00
2023-02-16T21:53:18.580Z,88.11
2023-02-16T21:56:04.101Z,88.10
2023-02-16T21:58:34.309Z,88.22
2023-02-16T22:01:03.532Z,88.11
2023-02-16T22:03:31.654Z,88.46
2023-02-16T22:06:02.638Z,88.58
2023-02-16T22:08:31.216Z,88.68
2023-02-16T22:11:08.791Z,88.73
2023-02-16T22:13:36.702Z,88.87
2023-02-16T22:16:10.281Z,89.03
2023-02-16T22:18:37.422Z,89.33
2023-02-16T22:21:04.901Z,89.25
2023-02-16T22:23:34.150Z,89.25
2023-02-16T22:26:01.224Z,89.83
2023-02-16T22:28:27.771Z,89.42
2023-02-16T22:30:55.376Z,89.48
2023-02-16T22:33:21.962Z,89.84
2023-02-16T22:35:49.722Z,89.65
2023-02-16T22:38:17.279Z,89.67
2023-02-16T22:40:44.709Z,89.70
2023-02-16T22:43:11.252Z,89.51
2023-02-16T22:45:38.524Z,89.84
2023-02-16T22:48:05.509Z,89.53
2023-02-16T22:50:35.966Z,89.47
2023-02-16T22:53:02.705Z,89.43
2023-02-16T22:55:29.282Z,89.33
